createdAt,value
2018-06-14T00:01:17.090Z,3.50
2018-06-14T00:03:45.883Z,3.47
2018-06-14T00:06:14.342Z,3.13
2018-06-14T00:08:43.130Z,3.30
2018-06-14T00:11:11.900Z,2.97
2018-06-14T00:13:40.316Z,3.80
2018-06-14T00:16:09.216Z,3.20
2018-06-14T00:18:37.929Z,3.27
2018-06-14T00:21:06.695Z,3.20
2018-06-14T00:23:35.114Z,3.40
2018-06-14T00:26:03.492Z,3.10
2018-06-14T00:28:32.341Z,3.20
2018-06-14T00:31:01.084Z,2.70
2018-06-14T00:33:29.473Z,3.63
2018-06-14T00:35:57.849Z,3.03
2018-06-14T00:38:26.635Z,3.23
2018-06-14T00:40:55.469Z,2.50
2018-06-14T00:43:23.843Z,3.03
2018-06-14T00:45:52.747Z,2.80
2018-06-14T00:48:21.595Z,3.33
2018-06-14T00:50:50.321Z,3.00
2018-06-14T00:53:18.866Z,3.00
2018-06-14T00:55:47.601Z,3.50
2018-06-14T00:58:15.965Z,3.30
2018-06-14T01:00:44.405Z,3.40
2018-06-14T01:03:13.320Z,3.83
2018-06-14T01:05:42.088Z,3.60
2018-06-14T01:10:40.039Z,3.40
2018-06-14T01:13:08.798Z,3.63
2018-06-14T01:15:37.536Z,3.33
2018-06-14T01:18:06.378Z,3.53
2018-06-14T01:20:35.175Z,3.30
2018-06-14T01:23:03.935Z,3.70
2018-06-14T01:25:32.372Z,4.13
2018-06-14T01:28:01.243Z,3.60
2018-06-14T01:30:29.631Z,3.37
2018-06-14T01:32:57.999Z,3.80
2018-06-14T01:35:26.791Z,3.57
2018-06-14T01:38:00.707Z,3.80
2018-06-14T01:40:29.474Z,3.33
2018-06-14T01:42:57.894Z,3.70
2018-06-14T01:45:26.715Z,4.17
2018-06-14T01:47:55.129Z,4.07
2018-06-14T01:50:23.903Z,4.37
2018-06-14T01:52:52.285Z,4.47
2018-06-14T01:55:20.692Z,4.00
2018-06-14T01:57:49.062Z,3.67
2018-06-14T02:00:17.954Z,4.00
2018-06-14T02:02:46.689Z,4.27
2018-06-14T02:05:15.433Z,3.93
2018-06-14T02:07:43.828Z,4.17
2018-06-14T02:10:12.173Z,3.90
2018-06-14T02:12:40.937Z,4.43
2018-06-14T02:15:09.290Z,3.70
2018-06-14T02:17:38.090Z,3.80
2018-06-14T02:20:07.023Z,4.33
2018-06-14T02:22:35.419Z,3.97
2018-06-14T02:25:04.694Z,4.00
2018-06-14T02:27:33.058Z,3.80
2018-06-14T02:30:01.447Z,3.80
2018-06-14T02:32:30.385Z,4.00
2018-06-14T02:34:59.219Z,4.20
2018-06-14T02:37:27.648Z,4.10
2018-06-14T02:39:56.412Z,3.97
2018-06-14T02:42:25.247Z,4.07
2018-06-14T02:44:54.051Z,4.00
2018-06-14T02:47:22.825Z,4.53
2018-06-14T02:49:51.205Z,4.13
2018-06-14T02:52:20.132Z,4.17
2018-06-14T02:54:48.498Z,4.27
2018-06-14T02:57:16.902Z,4.17
2018-06-14T02:59:45.786Z,4.30
2018-06-14T03:02:14.165Z,4.63
2018-06-14T03:04:42.922Z,5.20
2018-06-14T03:07:11.831Z,5.07
2018-06-14T03:09:40.568Z,4.93
2018-06-14T03:12:09.314Z,4.80
2018-06-14T03:14:37.704Z,5.10
2018-06-14T03:17:06.199Z,4.73
2018-06-14T03:19:34.954Z,4.53
2018-06-14T03:22:03.839Z,4.80
2018-06-14T03:24:32.277Z,5.43
2018-06-14T03:27:00.621Z,4.60
2018-06-14T03:29:29.440Z,5.03
2018-06-14T03:31:58.434Z,4.30
2018-06-14T03:34:27.239Z,4.60
2018-06-14T03:36:55.635Z,4.73
2018-06-14T03:39:24.042Z,5.23
2018-06-14T03:41:52.836Z,5.00
2018-06-14T03:44:21.606Z,6.17
2018-06-14T03:46:50.205Z,5.47
2018-06-14T03:49:18.976Z,5.17
2018-06-14T03:51:47.746Z,5.57
2018-06-14T03:54:16.510Z,5.77
2018-06-14T03:56:44.956Z,5.53
2018-06-14T03:59:13.693Z,5.37
2018-06-14T04:01:42.042Z,5.17
2018-06-14T04:04:10.835Z,5.10
2018-06-14T04:06:39.194Z,5.60
2018-06-14T04:09:09.327Z,4.67
2018-06-14T04:11:38.098Z,5.30
2018-06-14T04:14:07.002Z,5.33
2018-06-14T04:16:35.925Z,5.07
2018-06-14T04:19:04.880Z,4.87
2018-06-14T04:21:33.674Z,4.80
2018-06-14T04:24:02.726Z,5.03
2018-06-14T04:26:31.085Z,5.40
2018-06-14T04:28:59.804Z,4.70
2018-06-14T04:31:28.216Z,4.90
2018-06-14T04:33:56.587Z,4.83
2018-06-14T04:36:24.990Z,4.93
2018-06-14T04:38:53.717Z,4.27
2018-06-14T04:41:22.082Z,4.13
2018-06-14T04:43:50.446Z,4.43
2018-06-14T04:46:19.267Z,4.73
2018-06-14T04:48:47.655Z,4.27
2018-06-14T04:51:16.164Z,4.77
2018-06-14T04:53:44.922Z,4.57
2018-06-14T04:56:14.301Z,4.80
2018-06-14T04:58:42.701Z,4.40
2018-06-14T05:01:21.080Z,5.00
2018-06-14T05:03:50.202Z,5.03
2018-06-14T05:06:18.591Z,4.77
2018-06-14T05:08:46.963Z,4.53
2018-06-14T05:21:14.133Z,4.95
2018-06-14T05:26:10.497Z,4.03
2018-06-14T05:28:39.291Z,4.73
2018-06-14T05:31:07.667Z,4.33
2018-06-14T05:33:36.463Z,4.90
2018-06-14T05:36:04.825Z,4.60
2018-06-14T05:38:33.626Z,5.07
2018-06-14T05:41:01.996Z,3.90
2018-06-14T05:43:30.754Z,4.40
2018-06-14T05:45:59.201Z,4.33
2018-06-14T05:48:27.583Z,4.40
2018-06-14T05:50:55.992Z,4.20
2018-06-14T05:53:24.719Z,3.87
2018-06-14T05:55:53.123Z,3.97
2018-06-14T05:58:21.596Z,3.83
2018-06-14T06:00:50.377Z,4.10
2018-06-14T06:03:19.984Z,4.13
2018-06-14T06:55:06.575Z,4.13
2018-06-14T06:57:35.365Z,4.00
2018-06-14T07:00:05.103Z,4.10
2018-06-14T07:02:33.837Z,4.10
2018-06-14T07:05:02.257Z,4.33
2018-06-14T07:07:31.057Z,4.43
2018-06-14T07:10:00.104Z,4.77
2018-06-14T07:12:28.935Z,4.80
2018-06-14T07:14:57.836Z,4.73
2018-06-14T07:17:26.569Z,5.00
2018-06-14T07:19:54.960Z,5.33
2018-06-14T07:22:23.326Z,5.97
2018-06-14T07:24:52.106Z,5.90
2018-06-14T07:34:43.936Z,5.93
2018-06-14T07:37:12.300Z,6.00
2018-06-14T07:42:09.025Z,6.50
2018-06-14T07:44:37.935Z,5.80
2018-06-14T07:47:06.300Z,5.67
2018-06-14T07:49:35.068Z,6.30
2018-06-14T07:52:03.467Z,6.80
2018-06-14T07:54:31.880Z,6.07
2018-06-14T07:57:00.666Z,5.70
2018-06-14T07:59:29.026Z,6.20
2018-06-14T08:01:57.404Z,6.13
2018-06-14T08:04:26.176Z,6.40
2018-06-14T08:06:54.944Z,6.30
2018-06-14T08:09:23.736Z,7.30
2018-06-14T08:11:52.153Z,6.70
2018-06-14T08:14:20.944Z,6.90
2018-06-14T08:16:50.835Z,8.17
2018-06-14T08:19:20.122Z,7.40
2018-06-14T08:21:48.503Z,6.87
2018-06-14T08:24:17.251Z,8.13
2018-06-14T08:26:46.235Z,7.70
2018-06-14T08:29:14.667Z,8.10
2018-06-14T08:31:43.436Z,7.83
2018-06-14T08:34:12.308Z,7.60
2018-06-14T08:36:40.670Z,6.80
2018-06-14T08:39:09.729Z,7.10
2018-06-14T08:41:38.656Z,7.23
2018-06-14T08:44:07.124Z,6.97
2018-06-14T08:46:35.879Z,7.13
2018-06-14T08:49:04.276Z,7.47
2018-06-14T08:51:33.245Z,7.17
2018-06-14T08:54:01.625Z,7.87
2018-06-14T08:56:30.018Z,8.33
2018-06-14T08:58:58.405Z,7.40
2018-06-14T09:01:27.176Z,7.87
2018-06-14T09:03:55.908Z,6.87
2018-06-14T09:06:24.549Z,5.80
2018-06-14T09:08:53.319Z,6.03
2018-06-14T09:11:22.082Z,6.40
2018-06-14T09:13:51.763Z,7.00
2018-06-14T09:16:20.790Z,6.80
2018-06-14T09:18:49.506Z,6.07
2018-06-14T09:21:18.361Z,5.93
2018-06-14T09:23:47.152Z,6.33
2018-06-14T09:26:16.550Z,6.40
2018-06-14T09:28:45.814Z,6.03
2018-06-14T09:31:14.345Z,7.33
2018-06-14T09:33:44.094Z,5.73
2018-06-14T09:36:12.855Z,5.47
2018-06-14T09:38:41.231Z,6.30
2018-06-14T09:41:09.595Z,5.93
2018-06-14T09:43:38.330Z,6.53
2018-06-14T09:46:06.718Z,6.00
2018-06-14T09:48:35.507Z,6.30
2018-06-14T09:51:04.664Z,5.40
2018-06-14T09:53:33.026Z,5.63
2018-06-14T09:56:01.842Z,5.47
2018-06-14T09:58:30.585Z,5.80
2018-06-14T10:01:15.111Z,6.50
2018-06-14T10:03:43.524Z,6.37
2018-06-14T10:06:11.972Z,6.90
2018-06-14T10:08:40.700Z,7.00
2018-06-14T10:16:05.485Z,6.13
2018-06-14T10:18:34.248Z,5.70
2018-06-14T10:21:02.993Z,5.17
2018-06-14T10:23:31.788Z,5.50
2018-06-14T10:26:00.548Z,6.20
2018-06-14T10:28:29.105Z,4.77
2018-06-14T10:30:57.878Z,4.73
2018-06-14T10:33:26.611Z,4.90
2018-06-14T10:35:55.816Z,4.47
2018-06-14T10:38:24.228Z,5.13
2018-06-14T10:40:52.818Z,4.43
2018-06-14T10:43:21.569Z,5.57
2018-06-14T10:45:50.310Z,4.20
2018-06-14T10:48:19.087Z,5.00
2018-06-14T10:50:47.494Z,5.20
2018-06-14T10:53:16.267Z,4.30
2018-06-14T10:55:45.059Z,5.07
2018-06-14T10:58:13.445Z,5.17
2018-06-14T11:00:42.332Z,4.50
2018-06-14T11:03:11.085Z,3.97
2018-06-14T11:05:40.525Z,3.70
2018-06-14T11:08:10.268Z,5.10
2018-06-14T11:10:38.985Z,4.50
2018-06-14T11:13:07.816Z,4.13
2018-06-14T11:15:36.662Z,4.53
2018-06-14T11:18:05.459Z,3.93
2018-06-14T11:20:34.265Z,4.57
2018-06-14T11:23:03.070Z,4.33
2018-06-14T11:25:31.464Z,3.60
2018-06-14T11:27:59.850Z,4.30
2018-06-14T11:32:56.158Z,3.83
2018-06-14T11:35:24.967Z,4.03
2018-06-14T11:37:53.452Z,4.20
2018-06-14T11:40:21.823Z,3.80
2018-06-14T11:50:14.511Z,5.03
2018-06-14T11:52:43.285Z,4.60
2018-06-14T11:55:12.225Z,4.20
2018-06-14T11:57:41.008Z,3.57
2018-06-14T12:00:10.157Z,4.27
2018-06-14T12:02:39.692Z,3.83
2018-06-14T12:05:08.661Z,4.20
2018-06-14T12:07:37.477Z,4.33
2018-06-14T12:10:06.544Z,4.13
2018-06-14T12:12:35.230Z,3.77
2018-06-14T12:17:32.202Z,4.30
2018-06-14T12:20:00.896Z,3.97
2018-06-14T12:22:29.902Z,4.60
2018-06-14T12:24:58.701Z,3.60
2018-06-14T12:27:27.458Z,4.40
2018-06-14T12:29:55.855Z,3.60
2018-06-14T12:32:24.246Z,4.03
2018-06-14T12:34:52.623Z,3.70
2018-06-14T12:37:21.420Z,3.50
2018-06-14T12:39:50.173Z,3.30
2018-06-14T12:42:18.907Z,3.93
2018-06-14T12:44:47.677Z,3.87
2018-06-14T12:47:16.079Z,3.40
2018-06-14T12:49:44.457Z,3.30
2018-06-14T12:52:13.253Z,3.23
2018-06-14T12:54:42.031Z,3.30
2018-06-14T12:57:10.936Z,3.43
2018-06-14T12:59:39.656Z,3.20
2018-06-14T13:02:07.995Z,3.20
2018-06-14T13:04:36.783Z,3.30
2018-06-14T13:09:32.713Z,3.20
2018-06-14T13:12:01.492Z,3.47
2018-06-14T13:14:30.256Z,3.07
2018-06-14T13:16:58.983Z,2.87
2018-06-14T13:19:28.255Z,3.37
2018-06-14T13:21:56.642Z,3.23
2018-06-14T13:24:25.057Z,2.90
2018-06-14T13:26:53.494Z,3.40
2018-06-14T13:29:21.872Z,3.03
2018-06-14T13:31:50.694Z,3.07
2018-06-14T13:34:19.116Z,2.97
2018-06-14T13:36:48.009Z,3.40
2018-06-14T13:39:16.423Z,3.70
2018-06-14T13:41:45.176Z,3.63
2018-06-14T13:44:14.530Z,3.77
2018-06-14T13:46:43.300Z,3.30
2018-06-14T13:49:12.129Z,3.80
2018-06-14T13:51:41.277Z,4.07
2018-06-14T13:54:10.663Z,3.80
2018-06-14T13:56:39.021Z,3.67
2018-06-14T13:59:07.922Z,3.90
2018-06-14T14:01:36.657Z,3.80
2018-06-14T14:04:05.404Z,4.60
2018-06-14T14:06:34.170Z,4.07
2018-06-14T14:09:03.004Z,4.57
2018-06-14T14:11:31.406Z,4.00
2018-06-14T14:13:59.814Z,4.73
2018-06-14T14:16:28.221Z,5.20
2018-06-14T14:18:57.081Z,4.73
2018-06-14T14:21:25.867Z,4.73
2018-06-14T14:23:54.670Z,4.33
2018-06-14T14:26:23.643Z,4.40
2018-06-14T14:28:52.372Z,4.43
2018-06-14T14:31:21.201Z,4.40
2018-06-14T14:33:49.951Z,4.47
2018-06-14T14:36:18.377Z,5.20
2018-06-14T14:38:47.209Z,4.87
2018-06-14T14:41:15.608Z,4.70
2018-06-14T14:43:44.361Z,4.30
2018-06-14T14:46:13.109Z,4.40
2018-06-14T14:48:42.313Z,4.10
2018-06-14T14:51:11.085Z,3.87
2018-06-14T14:53:39.833Z,3.73
2018-06-14T14:56:08.621Z,4.27
2018-06-14T14:58:37.461Z,3.53
2018-06-14T15:01:06.284Z,4.00
2018-06-14T15:03:34.638Z,4.53
2018-06-14T15:06:03.433Z,3.77
2018-06-14T15:08:31.824Z,3.97
2018-06-14T15:11:00.640Z,4.53
2018-06-14T15:13:29.373Z,4.17
2018-06-14T15:15:58.100Z,4.60
2018-06-14T15:18:26.515Z,4.00
2018-06-14T15:20:54.893Z,4.77
2018-06-14T15:23:23.682Z,5.03
2018-06-14T15:25:52.423Z,4.87
2018-06-14T15:28:21.240Z,5.20
2018-06-14T15:30:49.642Z,5.23
2018-06-14T15:33:18.466Z,5.00
2018-06-14T15:35:47.245Z,4.87
2018-06-14T15:38:16.049Z,5.23
2018-06-14T15:40:44.458Z,4.97
2018-06-14T15:43:13.275Z,6.17
2018-06-14T15:45:41.640Z,6.83
2018-06-14T15:48:10.440Z,5.73
2018-06-14T15:50:39.223Z,6.53
2018-06-14T15:53:08.035Z,7.40
2018-06-14T15:56:09.392Z,6.60
2018-06-14T15:58:38.181Z,7.00
2018-06-14T16:01:07.492Z,6.37
2018-06-14T16:03:35.884Z,6.80
2018-06-14T16:06:04.712Z,6.50
2018-06-14T16:08:33.472Z,6.93
2018-06-14T16:11:01.856Z,6.30
2018-06-14T16:13:30.721Z,6.23
2018-06-14T16:15:59.498Z,5.97
2018-06-14T16:18:27.908Z,6.40
2018-06-14T16:20:56.688Z,5.77
2018-06-14T16:23:25.423Z,6.20
2018-06-14T16:25:53.778Z,5.33
2018-06-14T16:28:22.181Z,6.80
2018-06-14T16:30:50.532Z,7.00
2018-06-14T16:33:19.353Z,6.90
2018-06-14T16:35:47.741Z,6.97
2018-06-14T16:38:16.526Z,7.87
2018-06-14T16:40:49.868Z,7.73
2018-06-14T16:43:18.973Z,8.20
2018-06-14T16:45:47.378Z,8.77
2018-06-14T16:48:16.131Z,8.53
2018-06-14T16:50:44.519Z,9.10
2018-06-14T16:53:12.947Z,10.33
2018-06-14T16:55:41.364Z,9.83
2018-06-14T16:58:10.153Z,11.67
2018-06-14T17:00:49.856Z,12.00
2018-06-14T17:03:18.726Z,12.83
2018-06-14T17:05:47.548Z,12.50
2018-06-14T17:08:16.675Z,13.73
2018-06-14T17:10:45.953Z,14.87
2018-06-14T17:15:42.355Z,15.47
2018-06-14T17:18:11.130Z,15.93
2018-06-14T17:20:39.512Z,16.37
2018-06-14T17:23:08.311Z,17.07
2018-06-14T17:25:37.195Z,16.43
2018-06-14T17:28:05.749Z,15.83
2018-06-14T17:30:34.124Z,17.33
2018-06-14T17:33:02.570Z,15.63
2018-06-14T17:35:31.373Z,15.00
2018-06-14T17:45:23.299Z,16.90
2018-06-14T17:47:51.715Z,14.30
2018-06-14T17:50:20.128Z,17.83
2018-06-14T17:52:48.489Z,15.87
2018-06-14T17:55:16.917Z,16.70
2018-06-14T17:57:45.710Z,14.63
2018-06-14T18:00:14.139Z,17.57
2018-06-14T18:02:42.915Z,16.17
2018-06-14T18:05:11.341Z,16.63
2018-06-14T18:07:40.184Z,16.03
2018-06-14T18:10:08.203Z,16.80
2018-06-14T18:12:37.012Z,17.07
2018-06-14T18:15:05.841Z,17.33
2018-06-14T18:17:34.640Z,15.77
2018-06-14T18:20:03.468Z,14.70
2018-06-14T18:22:32.497Z,14.63
2018-06-14T18:25:01.128Z,15.53
2018-06-14T18:27:29.996Z,15.43
2018-06-14T18:29:58.842Z,15.70
2018-06-14T18:32:27.311Z,16.20
2018-06-14T18:34:56.110Z,18.20
2018-06-14T18:37:25.628Z,16.90
2018-06-14T18:39:54.702Z,16.40
2018-06-14T18:42:23.387Z,17.87
2018-06-14T18:44:52.070Z,16.97
2018-06-14T18:47:20.527Z,16.13
2018-06-14T18:49:49.007Z,15.00
2018-06-14T18:52:17.872Z,15.30
2018-06-14T18:54:46.350Z,14.30
2018-06-14T18:57:14.859Z,15.37
2018-06-14T18:59:43.876Z,14.33
2018-06-14T19:02:12.249Z,14.63
2018-06-14T19:04:41.228Z,15.33
2018-06-14T19:07:09.663Z,13.87
2018-06-14T19:09:39.614Z,14.03
2018-06-14T19:12:08.535Z,13.13
2018-06-14T19:14:37.372Z,14.23
2018-06-14T19:17:05.849Z,13.40
2018-06-14T19:19:34.241Z,12.80
2018-06-14T19:22:02.995Z,12.23
2018-06-14T19:24:31.902Z,14.20
2018-06-14T19:27:00.568Z,14.30
2018-06-14T19:29:29.613Z,13.73
2018-06-14T19:31:58.551Z,14.40
2018-06-14T19:34:27.228Z,14.60
2018-06-14T19:36:55.647Z,14.20
2018-06-14T19:39:24.568Z,15.30
2018-06-14T19:41:52.946Z,13.07
2018-06-14T19:44:21.327Z,13.97
2018-06-14T19:46:50.144Z,12.80
2018-06-14T19:49:23.452Z,13.33
2018-06-14T19:51:51.931Z,13.83
2018-06-14T19:54:20.630Z,12.40
2018-06-14T19:56:49.378Z,13.90
2018-06-14T19:59:17.860Z,14.67
2018-06-14T20:01:46.818Z,14.33
2018-06-14T20:04:15.585Z,15.03
2018-06-14T20:06:44.556Z,13.57
2018-06-14T20:09:12.953Z,15.53
2018-06-14T20:11:41.736Z,14.60
2018-06-14T20:14:10.538Z,14.87
2018-06-14T20:16:39.218Z,16.03
2018-06-14T20:19:08.174Z,15.63
2018-06-14T20:21:36.531Z,13.50
2018-06-14T20:24:05.203Z,14.27
2018-06-14T20:26:33.736Z,14.87
2018-06-14T20:29:02.116Z,16.37
2018-06-14T20:31:30.489Z,14.10
2018-06-14T20:33:59.346Z,14.43
2018-06-14T20:36:27.768Z,13.70
2018-06-14T20:38:56.558Z,12.87
2018-06-14T20:41:24.986Z,14.33
2018-06-14T20:43:53.387Z,14.23
2018-06-14T20:46:22.184Z,13.80
2018-06-14T20:48:50.639Z,14.93
2018-06-14T20:51:19.413Z,14.17
2018-06-14T20:53:47.769Z,12.90
2018-06-14T20:56:16.556Z,13.40
2018-06-14T20:58:44.973Z,13.00
2018-06-14T21:01:19.722Z,14.17
2018-06-14T21:03:48.558Z,14.70
2018-06-14T21:06:16.953Z,14.73
2018-06-14T21:08:45.355Z,14.47
2018-06-14T21:11:14.132Z,14.23
2018-06-14T21:13:42.980Z,14.20
2018-06-14T21:16:11.422Z,13.83
2018-06-14T21:18:40.275Z,15.33
2018-06-14T21:21:09.100Z,14.33
2018-06-14T21:23:37.661Z,15.63
2018-06-14T21:26:06.479Z,14.70
2018-06-14T21:28:34.866Z,15.43
2018-06-14T21:31:03.220Z,16.57
2018-06-14T21:33:31.945Z,15.27
2018-06-14T21:36:00.803Z,16.20
2018-06-14T21:38:29.203Z,15.70
2018-06-14T21:40:58.057Z,16.77
2018-06-14T21:43:27.270Z,17.50
2018-06-14T21:45:56.054Z,17.70
2018-06-14T21:48:24.436Z,18.77
2018-06-14T21:50:53.225Z,18.20
2018-06-14T21:53:21.617Z,18.03
2018-06-14T21:55:50.480Z,16.40
2018-06-14T21:58:19.318Z,17.30
2018-06-14T22:00:56.235Z,19.20
2018-06-14T22:03:30.234Z,18.67
2018-06-14T22:05:58.946Z,21.30
2018-06-14T22:08:27.352Z,20.27
2018-06-14T22:10:56.154Z,21.57
2018-06-14T22:13:24.988Z,20.20
2018-06-14T22:15:53.767Z,20.23
2018-06-14T22:25:45.715Z,20.23
2018-06-14T22:28:14.513Z,19.43
2018-06-14T22:30:43.321Z,18.17
2018-06-14T22:33:23.229Z,21.47
2018-06-14T22:35:51.719Z,18.23
2018-06-14T22:38:20.585Z,20.33
2018-06-14T22:40:48.987Z,20.50
2018-06-14T22:43:17.368Z,20.43
2018-06-14T22:45:46.191Z,22.63
2018-06-14T22:48:14.574Z,24.07
2018-06-14T22:50:54.490Z,26.57
2018-06-14T22:53:23.262Z,25.27
2018-06-14T22:55:52.229Z,27.93
2018-06-14T22:58:20.625Z,28.33
2018-06-14T23:00:54.584Z,24.33
2018-06-14T23:03:23.694Z,25.83
2018-06-14T23:05:52.171Z,31.27
2018-06-14T23:08:20.557Z,27.43
2018-06-14T23:10:54.408Z,29.33
2018-06-14T23:13:22.791Z,27.50
2018-06-14T23:15:51.174Z,29.20
2018-06-14T23:18:19.620Z,29.67
2018-06-14T23:20:48.397Z,28.00
2018-06-14T23:23:18.043Z,29.97
2018-06-14T23:25:46.794Z,28.50
2018-06-14T23:28:15.176Z,31.07
2018-06-14T23:30:43.983Z,30.03
2018-06-14T23:33:12.337Z,31.67
2018-06-14T23:35:41.146Z,30.80
2018-06-14T23:38:09.529Z,32.43
2018-06-14T23:40:37.894Z,31.73
2018-06-14T23:43:06.279Z,34.07
2018-06-14T23:45:34.673Z,34.90
2018-06-14T23:48:03.409Z,35.97
2018-06-14T23:50:31.925Z,37.53
2018-06-14T23:53:00.671Z,36.50
2018-06-14T23:55:29.412Z,35.47
2018-06-14T23:57:58.231Z,35.70
